QTR12 EGLL-EDDH
Flight info
| Callsign | QTR12 |
|---|---|
| Flight time | N/A |
| Altitude | 35000 |
| Route | DET DCT SOMVA DCT MAVAS DCT VALAM DCT GASTU DCT OSTOR T904 RIBSO RIBSO3P |
| Aircraft | A332/H-SDE3GHIJ2J3J5M1RVWXY/LB2D1 |
Departure
| Time | N/A |
|---|---|
| Airport | London Heathrow Airport (EGLL) |
Arrival
| Time | 2026-04-24 19:36 |
|---|---|
| Airport | Hamburg Helmut Schmidt Airport (EDDH) |
| Time | Latitude | Longitude | Altitude | Speed | Heading |
|---|---|---|---|---|---|
| 2026-04-24 18:54 | 52.59990 | 3.85037 | 27987 ft | 486 kts | 63° |
| 2026-04-24 18:55 | 52.62893 | 3.95066 | 28421 ft | 491 kts | 63° |
| 2026-04-24 18:55 | 52.64363 | 4.00161 | 28648 ft | 493 kts | 63° |
| 2026-04-24 18:55 | 52.65840 | 4.05288 | 28806 ft | 497 kts | 63° |
| 2026-04-24 18:56 | 52.67320 | 4.10441 | 29023 ft | 499 kts | 63° |
| 2026-04-24 18:56 | 52.68810 | 4.15638 | 29233 ft | 501 kts | 63° |
| 2026-04-24 18:56 | 52.70296 | 4.20836 | 29549 ft | 502 kts | 63° |
| 2026-04-24 18:56 | 52.71784 | 4.26053 | 29824 ft | 503 kts | 63° |
| 2026-04-24 18:57 | 52.73274 | 4.31285 | 29999 ft | 506 kts | 63° |
| 2026-04-24 18:57 | 52.74773 | 4.36561 | 30200 ft | 508 kts | 63° |
| 2026-04-24 18:57 | 52.76274 | 4.41855 | 30377 ft | 510 kts | 63° |
| 2026-04-24 18:57 | 52.77779 | 4.47176 | 30551 ft | 512 kts | 63° |
| 2026-04-24 18:58 | 52.79290 | 4.52530 | 30719 ft | 514 kts | 63° |
| 2026-04-24 18:58 | 52.80802 | 4.57899 | 30903 ft | 516 kts | 63° |
| 2026-04-24 18:58 | 52.82319 | 4.63303 | 31068 ft | 518 kts | 63° |
| 2026-04-24 18:58 | 52.83835 | 4.68710 | 31284 ft | 519 kts | 63° |
| 2026-04-24 18:59 | 52.85348 | 4.74123 | 31508 ft | 519 kts | 63° |
| 2026-04-24 18:59 | 52.86861 | 4.79548 | 31738 ft | 519 kts | 64° |
| 2026-04-24 18:59 | 52.88369 | 4.84970 | 31959 ft | 519 kts | 64° |
| 2026-04-24 18:59 | 52.89882 | 4.90421 | 32183 ft | 519 kts | 64° |
| 2026-04-24 19:00 | 52.91370 | 4.95791 | 32485 ft | 518 kts | 64° |
| 2026-04-24 19:00 | 52.92858 | 5.01179 | 32957 ft | 512 kts | 64° |
| 2026-04-24 19:00 | 52.94342 | 5.06564 | 33145 ft | 513 kts | 64° |
| 2026-04-24 19:01 | 52.97336 | 5.17456 | 33237 ft | 521 kts | 64° |
| 2026-04-24 19:01 | 52.98835 | 5.22931 | 33493 ft | 520 kts | 64° |
| 2026-04-24 19:01 | 53.00331 | 5.28409 | 33697 ft | 520 kts | 64° |
| 2026-04-24 19:01 | 53.01823 | 5.33885 | 33884 ft | 520 kts | 64° |
| 2026-04-24 19:02 | 53.02809 | 5.37513 | 34002 ft | 521 kts | 64° |
| 2026-04-24 19:02 | 53.04720 | 5.44915 | 34251 ft | 522 kts | 66° |
| 2026-04-24 19:02 | 53.06088 | 5.50505 | 34423 ft | 522 kts | 67° |
| 2026-04-24 19:02 | 53.07430 | 5.56109 | 34633 ft | 520 kts | 67° |
| 2026-04-24 19:03 | 53.08760 | 5.61695 | 34869 ft | 518 kts | 67° |
| 2026-04-24 19:03 | 53.10089 | 5.67277 | 34983 ft | 520 kts | 67° |
| 2026-04-24 19:03 | 53.11408 | 5.72803 | 34992 ft | 520 kts | 67° |
| 2026-04-24 19:04 | 53.14067 | 5.83930 | 34991 ft | 513 kts | 67° |
| 2026-04-24 19:04 | 53.16527 | 5.95065 | 34991 ft | 511 kts | 70° |
| 2026-04-24 19:05 | 53.18440 | 6.04474 | 34988 ft | 511 kts | 70° |
| 2026-04-24 19:05 | 53.20700 | 6.15648 | 34971 ft | 512 kts | 70° |
| 2026-04-24 19:06 | 53.23005 | 6.26932 | 34976 ft | 515 kts | 70° |
| 2026-04-24 19:06 | 53.25324 | 6.38262 | 34963 ft | 516 kts | 70° |
| 2026-04-24 19:07 | 53.27637 | 6.49608 | 34966 ft | 516 kts | 70° |
| 2026-04-24 19:07 | 53.29943 | 6.60971 | 34963 ft | 516 kts | 70° |
| 2026-04-24 19:08 | 53.32223 | 6.72277 | 34960 ft | 516 kts | 70° |
| 2026-04-24 19:08 | 53.34507 | 6.83686 | 34958 ft | 518 kts | 70° |
| 2026-04-24 19:09 | 53.36786 | 6.95146 | 34962 ft | 518 kts | 70° |
| 2026-04-24 19:09 | 53.39051 | 7.06601 | 34966 ft | 518 kts | 70° |
| 2026-04-24 19:09 | 53.40182 | 7.12348 | 34863 ft | 518 kts | 70° |
| 2026-04-24 19:10 | 53.41309 | 7.18088 | 34297 ft | 519 kts | 71° |
| 2026-04-24 19:10 | 53.42436 | 7.23846 | 33666 ft | 520 kts | 71° |
| 2026-04-24 19:10 | 53.43559 | 7.29606 | 33135 ft | 518 kts | 71° |
| 2026-04-24 19:10 | 53.44678 | 7.35358 | 32595 ft | 516 kts | 71° |
| 2026-04-24 19:11 | 53.45787 | 7.41078 | 31972 ft | 513 kts | 71° |
| 2026-04-24 19:11 | 53.46882 | 7.46744 | 31039 ft | 508 kts | 71° |
| 2026-04-24 19:11 | 53.47966 | 7.52373 | 30103 ft | 504 kts | 71° |
| 2026-04-24 19:11 | 53.49036 | 7.57943 | 29134 ft | 497 kts | 71° |
| 2026-04-24 19:12 | 53.50088 | 7.63435 | 28292 ft | 488 kts | 71° |
| 2026-04-24 19:12 | 53.51094 | 7.68706 | 27718 ft | 472 kts | 71° |
| 2026-04-24 19:12 | 53.52085 | 7.73913 | 26877 ft | 466 kts | 71° |
| 2026-04-24 19:12 | 53.53072 | 7.79105 | 26267 ft | 465 kts | 71° |
| 2026-04-24 19:13 | 53.53738 | 7.82610 | 25918 ft | 464 kts | 71° |
| 2026-04-24 19:13 | 53.55026 | 7.89420 | 25356 ft | 459 kts | 71° |
| 2026-04-24 19:13 | 53.55989 | 7.94526 | 24945 ft | 456 kts | 71° |
| 2026-04-24 19:13 | 53.56939 | 7.99579 | 24476 ft | 450 kts | 71° |
| 2026-04-24 19:14 | 53.57874 | 8.04565 | 23731 ft | 443 kts | 71° |
| 2026-04-24 19:14 | 53.58795 | 8.09492 | 22811 ft | 440 kts | 71° |
| 2026-04-24 19:14 | 53.59709 | 8.14395 | 22230 ft | 437 kts | 71° |
| 2026-04-24 19:14 | 53.60614 | 8.19259 | 21810 ft | 433 kts | 71° |
| 2026-04-24 19:15 | 53.61507 | 8.24074 | 21373 ft | 429 kts | 71° |
| 2026-04-24 19:15 | 53.62390 | 8.28847 | 20813 ft | 423 kts | 71° |
| 2026-04-24 19:15 | 53.63245 | 8.33485 | 20017 ft | 417 kts | 71° |
| 2026-04-24 19:15 | 53.64100 | 8.38129 | 19127 ft | 413 kts | 71° |
| 2026-04-24 19:16 | 53.65775 | 8.47267 | 17369 ft | 402 kts | 70° |
| 2026-04-24 19:16 | 53.66591 | 8.51734 | 16501 ft | 396 kts | 70° |
| 2026-04-24 19:16 | 53.67393 | 8.56137 | 15632 ft | 390 kts | 70° |
| 2026-04-24 19:17 | 53.68183 | 8.60479 | 14809 ft | 385 kts | 70° |
| 2026-04-24 19:17 | 53.68960 | 8.64764 | 13980 ft | 380 kts | 70° |
| 2026-04-24 19:17 | 53.69730 | 8.69017 | 13062 ft | 376 kts | 70° |
| 2026-04-24 19:17 | 53.70484 | 8.73195 | 12204 ft | 370 kts | 70° |
| 2026-04-24 19:18 | 53.71226 | 8.77313 | 11378 ft | 364 kts | 69° |
| 2026-04-24 19:18 | 53.71956 | 8.81379 | 10607 ft | 359 kts | 69° |
| 2026-04-24 19:18 | 53.72678 | 8.85403 | 10117 ft | 359 kts | 69° |
| 2026-04-24 19:18 | 53.73405 | 8.89450 | 9941 ft | 359 kts | 69° |
| 2026-04-24 19:19 | 53.74125 | 8.93474 | 9908 ft | 357 kts | 69° |
| 2026-04-24 19:19 | 53.74832 | 8.97433 | 9906 ft | 356 kts | 69° |
| 2026-04-24 19:19 | 53.75546 | 9.01443 | 9903 ft | 356 kts | 69° |
| 2026-04-24 19:19 | 53.76253 | 9.05426 | 9902 ft | 348 kts | 69° |
| 2026-04-24 19:20 | 53.76939 | 9.09314 | 9904 ft | 347 kts | 69° |
| 2026-04-24 19:20 | 53.77635 | 9.13248 | 9893 ft | 345 kts | 69° |
| 2026-04-24 19:20 | 53.78302 | 9.17049 | 9908 ft | 337 kts | 69° |
| 2026-04-24 19:20 | 53.78991 | 9.20943 | 9886 ft | 347 kts | 69° |
| 2026-04-24 19:21 | 53.79662 | 9.24771 | 9845 ft | 332 kts | 69° |
| 2026-04-24 19:21 | 53.80302 | 9.28455 | 9711 ft | 321 kts | 69° |
| 2026-04-24 19:21 | 53.80921 | 9.32024 | 9576 ft | 311 kts | 68° |
| 2026-04-24 19:21 | 53.81521 | 9.35483 | 9433 ft | 301 kts | 68° |
| 2026-04-24 19:22 | 53.81907 | 9.37716 | 9277 ft | 297 kts | 68° |
| 2026-04-24 19:22 | 53.82680 | 9.42184 | 8850 ft | 293 kts | 68° |
| 2026-04-24 19:22 | 53.83252 | 9.45480 | 8387 ft | 290 kts | 68° |
| 2026-04-24 19:22 | 53.83803 | 9.48699 | 7877 ft | 287 kts | 68° |
| 2026-04-24 19:23 | 53.84360 | 9.51946 | 7519 ft | 287 kts | 69° |
| 2026-04-24 19:23 | 53.84920 | 9.55179 | 7212 ft | 285 kts | 69° |
| 2026-04-24 19:23 | 53.85478 | 9.58377 | 6950 ft | 282 kts | 68° |
| 2026-04-24 19:23 | 53.86029 | 9.61555 | 6882 ft | 282 kts | 70° |
| 2026-04-24 19:24 | 53.86365 | 9.64864 | 6872 ft | 287 kts | 78° |
| 2026-04-24 19:24 | 53.86559 | 9.68251 | 6873 ft | 289 kts | 81° |
| 2026-04-24 19:24 | 53.86672 | 9.71667 | 6875 ft | 290 kts | 83° |
| 2026-04-24 19:24 | 53.86742 | 9.75091 | 6876 ft | 291 kts | 84° |
| 2026-04-24 19:25 | 53.86780 | 9.78517 | 6870 ft | 292 kts | 88° |
| 2026-04-24 19:25 | 53.86635 | 9.81958 | 6874 ft | 293 kts | 91° |
| 2026-04-24 19:25 | 53.86445 | 9.85401 | 6872 ft | 294 kts | 92° |
| 2026-04-24 19:25 | 53.86221 | 9.88851 | 6878 ft | 294 kts | 92° |
| 2026-04-24 19:26 | 53.85977 | 9.92285 | 6872 ft | 294 kts | 93° |
| 2026-04-24 19:26 | 53.85725 | 9.95677 | 6875 ft | 294 kts | 93° |
| 2026-04-24 19:26 | 53.85465 | 9.99108 | 6879 ft | 294 kts | 93° |
| 2026-04-24 19:26 | 53.85204 | 10.02545 | 6861 ft | 294 kts | 93° |
| 2026-04-24 19:27 | 53.84944 | 10.05976 | 6862 ft | 294 kts | 93° |
| 2026-04-24 19:27 | 53.84684 | 10.09422 | 6862 ft | 294 kts | 93° |
| 2026-04-24 19:27 | 53.84425 | 10.12867 | 6857 ft | 294 kts | 93° |
| 2026-04-24 19:27 | 53.84166 | 10.16297 | 6861 ft | 294 kts | 93° |
| 2026-04-24 19:28 | 53.84079 | 10.19734 | 6871 ft | 289 kts | 79° |
| 2026-04-24 19:28 | 53.84582 | 10.22960 | 6956 ft | 279 kts | 58° |
| 2026-04-24 19:28 | 53.85561 | 10.25634 | 6961 ft | 257 kts | 47° |
| 2026-04-24 19:28 | 53.86667 | 10.27877 | 6735 ft | 243 kts | 43° |
| 2026-04-24 19:29 | 53.87695 | 10.33342 | 5613 ft | 266 kts | 98° |
| 2026-04-24 19:29 | 53.86923 | 10.36112 | 5402 ft | 256 kts | 129° |
| 2026-04-24 19:29 | 53.85527 | 10.37818 | 5135 ft | 244 kts | 162° |
| 2026-04-24 19:30 | 53.83898 | 10.38114 | 4707 ft | 233 kts | 195° |
| 2026-04-24 19:30 | 53.82486 | 10.37010 | 4237 ft | 221 kts | 225° |
| 2026-04-24 19:30 | 53.81330 | 10.35325 | 3799 ft | 220 kts | 226° |
| 2026-04-24 19:30 | 53.80185 | 10.33627 | 3361 ft | 217 kts | 232° |
| 2026-04-24 19:31 | 53.79182 | 10.31747 | 3015 ft | 214 kts | 238° |
| 2026-04-24 19:31 | 53.78228 | 10.29792 | 2974 ft | 215 kts | 238° |
| 2026-04-24 19:31 | 53.77279 | 10.27843 | 2965 ft | 210 kts | 238° |
| 2026-04-24 19:31 | 53.76380 | 10.26003 | 2962 ft | 195 kts | 238° |
| 2026-04-24 19:32 | 53.75543 | 10.24290 | 2971 ft | 186 kts | 238° |
| 2026-04-24 19:32 | 53.74728 | 10.22619 | 2967 ft | 183 kts | 239° |
| 2026-04-24 19:32 | 53.73926 | 10.20974 | 2970 ft | 184 kts | 239° |
| 2026-04-24 19:32 | 53.73110 | 10.19305 | 2967 ft | 184 kts | 239° |
| 2026-04-24 19:33 | 53.72288 | 10.17632 | 2840 ft | 185 kts | 238° |
| 2026-04-24 19:33 | 53.71467 | 10.15966 | 2581 ft | 183 kts | 238° |
| 2026-04-24 19:33 | 53.70658 | 10.14319 | 2315 ft | 181 kts | 238° |
| 2026-04-24 19:33 | 53.69862 | 10.12700 | 2075 ft | 176 kts | 238° |
| 2026-04-24 19:34 | 53.69091 | 10.11130 | 1836 ft | 171 kts | 238° |
| 2026-04-24 19:34 | 53.68340 | 10.09601 | 1576 ft | 168 kts | 238° |
| 2026-04-24 19:34 | 53.67601 | 10.08098 | 1346 ft | 163 kts | 237° |
| 2026-04-24 19:34 | 53.66902 | 10.06681 | 1129 ft | 153 kts | 238° |
| 2026-04-24 19:35 | 53.66224 | 10.05299 | 908 ft | 153 kts | 237° |
| 2026-04-24 19:35 | 53.65547 | 10.03926 | 686 ft | 152 kts | 236° |
| 2026-04-24 19:35 | 53.64884 | 10.02564 | 470 ft | 149 kts | 236° |
| 2026-04-24 19:35 | 53.64224 | 10.01250 | 253 ft | 146 kts | 235° |
| 2026-04-24 19:36 | 53.63573 | 9.99924 | 61 ft | 147 kts | 234° |
| 2026-04-24 19:36 | 53.63106 | 9.98959 | 46 ft | 55 kts | 231° |
| 2026-04-24 19:36 | 53.62920 | 9.98599 | 47 ft | 43 kts | 223° |
| 2026-04-24 19:36 | 53.62756 | 9.98473 | 47 ft | 0 kts | 187° |
| 2026-04-24 19:38 | 53.62755 | 9.98473 | 47 ft | 1 kts | 187° |
| 2026-04-24 19:38 | 53.62729 | 9.98472 | 47 ft | 7 kts | 179° |
| 2026-04-24 19:39 | 53.62691 | 9.98492 | 46 ft | 2 kts | 120° |
| 2026-04-24 19:39 | 53.62694 | 9.98531 | 46 ft | 6 kts | 76° |
| 2026-04-24 19:39 | 53.62728 | 9.98628 | 46 ft | 13 kts | 51° |
| 2026-04-24 19:39 | 53.62793 | 9.98757 | 46 ft | 8 kts | 50° |
| 2026-04-24 19:40 | 53.62849 | 9.98872 | 47 ft | 18 kts | 51° |
| 2026-04-24 19:40 | 53.62941 | 9.99062 | 47 ft | 19 kts | 49° |
| 2026-04-24 19:40 | 53.63002 | 9.99182 | 48 ft | 13 kts | 50° |
| 2026-04-24 19:40 | 53.63058 | 9.99298 | 48 ft | 13 kts | 52° |
| 2026-04-24 19:41 | 53.63109 | 9.99418 | 49 ft | 12 kts | 57° |
| 2026-04-24 19:41 | 53.63158 | 9.99537 | 48 ft | 13 kts | 51° |
| 2026-04-24 19:41 | 53.63207 | 9.99640 | 48 ft | 0 kts | 50° |
| 2026-04-24 19:43 | 53.63210 | 9.99646 | 48 ft | 2 kts | 48° |
| 2026-04-24 19:43 | 53.63225 | 9.99699 | 48 ft | 7 kts | 81° |
| 2026-04-24 19:43 | 53.63197 | 9.99781 | 48 ft | 11 kts | 143° |
| 2026-04-24 19:43 | 53.63104 | 9.99871 | 49 ft | 12 kts | 155° |
| 2026-04-24 19:44 | 53.63067 | 9.99900 | 46 ft | 5 kts | 155° |
| 2026-04-24 19:44 | 53.63054 | 9.99910 | 49 ft | 3 kts | 155° |
| 2026-04-24 19:44 | 53.63035 | 9.99925 | 47 ft | 3 kts | 154° |
| 2026-04-24 19:44 | 53.63020 | 9.99938 | 49 ft | 0 kts | 153° |
| 2026-04-24 19:45 | 53.63019 | 9.99939 | 49 ft | 0 kts | 153° |
| 2026-04-24 19:45 | 53.63019 | 9.99940 | 49 ft | 0 kts | 153° |
| 2026-04-24 19:46 | 53.63018 | 9.99940 | 49 ft | 1 kts | 153° |
| 2026-04-24 19:46 | 53.62978 | 9.99978 | 49 ft | 14 kts | 147° |
| 2026-04-24 19:47 | 53.62964 | 10.00109 | 49 ft | 9 kts | 50° |
| 2026-04-24 19:47 | 53.62998 | 10.00148 | 46 ft | 5 kts | 31° |
| 2026-04-24 19:47 | 53.63001 | 10.00151 | 47 ft | 0 kts | 31° |
| 2026-04-24 19:47 | 53.63007 | 10.00158 | 48 ft | 5 kts | 31° |
| 2026-04-24 19:48 | 53.63045 | 10.00220 | 49 ft | 4 kts | 75° |
| 2026-04-24 19:48 | 53.63044 | 10.00254 | 49 ft | 1 kts | 107° |
| 2026-04-24 19:48 | 53.63011 | 10.00353 | 49 ft | 1 kts | 121° |
| 2026-04-24 19:49 | 53.63007 | 10.00362 | 49 ft | 0 kts | 121° |